Time;durP1;ratioP1;P1;durP2;ratioP2;P2;SDS_P1;SDS_P2;PMS_P1;PMS_P2;Temp;Humidity;BMP_temperature;BMP_pressure;BME280_temperature;BME280_humidity;BME280_pressure;Samples;Min_cycle;Max_cycle;Signal;HPM_P1;HPM_P2
2021/05/29 00:01:26;;;;;;;22.55;11.50;;;;;;;10.79;73.31;102303.81;5101734;28;20032;-64
2021/05/29 00:03:51;;;;;;;22.55;11.40;;;;;;;10.79;73.88;102306.47;5104125;28;20032;-64
2021/05/29 00:06:17;;;;;;;22.42;11.65;;;;;;;10.82;73.69;102311.84;5101375;28;20098;-63
2021/05/29 00:08:43;;;;;;;22.33;11.23;;;;;;;10.80;73.49;102308.28;5108639;28;20046;-63
2021/05/29 00:11:09;;;;;;;21.67;10.90;;;;;;;10.80;73.68;102302.97;5105855;28;20030;-63
2021/05/29 00:13:37;;;;;;;22.75;11.60;;;;;;;10.84;74.16;102311.88;5107009;28;20032;-63
2021/05/29 00:16:02;;;;;;;21.85;11.00;;;;;;;10.93;74.17;102309.47;5107021;28;20031;-63
2021/05/29 00:18:28;;;;;;;23.58;11.45;;;;;;;10.86;74.33;102312.81;5105707;28;20454;-63
2021/05/29 00:20:54;;;;;;;23.00;11.70;;;;;;;10.95;74.10;102312.16;5108068;28;20023;-63
2021/05/29 00:23:20;;;;;;;23.70;11.35;;;;;;;10.88;74.59;102310.19;5105073;28;20032;-63
2021/05/29 00:25:46;;;;;;;23.40;11.45;;;;;;;10.85;74.71;102310.13;5108112;28;20144;-63
2021/05/29 00:28:13;;;;;;;24.52;12.18;;;;;;;10.80;74.50;102310.91;5103927;28;20042;-69
2021/05/29 00:30:39;;;;;;;24.92;11.90;;;;;;;10.78;75.39;102309.06;5107224;28;20024;-70
2021/05/29 00:33:05;;;;;;;23.80;12.40;;;;;;;10.87;75.30;102319.00;5105969;28;20050;-71
2021/05/29 00:35:30;;;;;;;22.83;11.80;;;;;;;10.84;75.53;102308.34;5106099;28;20024;-71
2021/05/29 00:37:56;;;;;;;22.80;12.18;;;;;;;10.76;75.76;102316.06;5107519;27;20030;-72
2021/05/29 00:40:21;;;;;;;23.45;12.25;;;;;;;10.73;75.23;102308.97;5104655;28;20028;-67
2021/05/29 00:42:46;;;;;;;23.88;12.50;;;;;;;10.73;76.08;102322.19;5108249;28;20386;-70
2021/05/29 00:45:12;;;;;;;24.85;12.85;;;;;;;10.70;76.34;102316.78;5104849;28;20490;-69
2021/05/29 00:47:38;;;;;;;23.10;12.50;;;;;;;10.70;76.06;102315.91;5106698;28;20108;-68
2021/05/29 00:50:07;;;;;;;22.05;11.38;;;;;;;10.72;76.26;102320.38;5106489;28;20059;-69
2021/05/29 00:52:34;;;;;;;23.13;11.80;;;;;;;10.69;76.05;102317.66;5105602;28;20020;-69
2021/05/29 00:55:04;;;;;;;23.65;11.48;;;;;;;10.67;75.86;102316.69;5106466;28;20031;-69
2021/05/29 00:57:29;;;;;;;22.75;11.75;;;;;;;10.58;76.57;102317.34;5105334;28;20089;-69
2021/05/29 00:59:54;;;;;;;23.27;11.10;;;;;;;10.58;77.17;102314.69;5107016;28;20019;-69
2021/05/29 01:02:20;;;;;;;22.42;11.35;;;;;;;10.49;77.15;102317.09;5103959;28;20024;-69
2021/05/29 01:04:45;;;;;;;22.85;11.57;;;;;;;10.53;77.69;102323.34;5107393;28;20016;-69
2021/05/29 01:07:13;;;;;;;22.25;11.55;;;;;;;10.44;77.65;102327.56;5104674;28;20035;-70
2021/05/29 01:09:40;;;;;;;22.63;11.45;;;;;;;10.34;77.52;102321.94;5106525;28;20020;-67
2021/05/29 01:12:07;;;;;;;21.80;10.82;;;;;;;10.35;78.30;102329.91;5105446;28;20043;-67
2021/05/29 01:14:34;;;;;;;22.35;11.35;;;;;;;10.28;78.25;102322.63;5105351;28;20028;-68
2021/05/29 01:17:02;;;;;;;24.10;11.43;;;;;;;10.27;78.90;102321.75;5105757;28;20031;-68
2021/05/29 01:19:29;;;;;;;22.85;11.65;;;;;;;10.20;79.64;102326.81;5103712;28;20024;-68
2021/05/29 01:21:54;;;;;;;22.73;11.38;;;;;;;10.11;80.41;102325.66;5106735;28;20545;-63
2021/05/29 01:24:22;;;;;;;21.92;11.20;;;;;;;10.14;80.21;102331.91;5103717;28;20036;-63
2021/05/29 01:26:48;;;;;;;22.35;10.82;;;;;;;10.04;80.06;102323.69;5100123;28;20039;-63
2021/05/29 01:29:14;;;;;;;21.80;10.73;;;;;;;9.97;80.03;102329.66;5106426;28;20026;-63
2021/05/29 01:31:42;;;;;;;23.05;10.73;;;;;;;9.94;80.12;102332.19;5104349;27;20019;-62
2021/05/29 01:34:11;;;;;;;22.02;10.98;;;;;;;9.95;80.14;102331.34;5105666;28;20544;-63
2021/05/29 01:36:39;;;;;;;22.27;10.50;;;;;;;9.91;80.03;102330.34;5104920;27;20024;-63
2021/05/29 01:39:06;;;;;;;22.17;10.68;;;;;;;9.87;80.91;102330.22;5105086;28;20024;-63
2021/05/29 01:41:32;;;;;;;21.27;10.68;;;;;;;9.82;80.90;102330.06;5105580;28;20427;-63
2021/05/29 01:43:58;;;;;;;23.63;11.50;;;;;;;9.77;81.52;102332.56;5102920;28;20064;-63
2021/05/29 01:46:23;;;;;;;22.23;10.52;;;;;;;9.79;81.43;102337.03;5106742;28;20032;-63
2021/05/29 01:48:50;;;;;;;22.08;11.10;;;;;;;9.71;81.56;102334.13;5103478;28;20103;-63
2021/05/29 01:51:17;;;;;;;22.13;10.93;;;;;;;9.62;81.57;102339.13;5106541;28;20075;-63
2021/05/29 01:53:43;;;;;;;22.48;11.20;;;;;;;9.54;82.22;102328.31;5102352;28;20040;-63
2021/05/29 01:56:08;;;;;;;21.73;10.88;;;;;;;9.52;82.19;102333.56;5105444;28;20036;-63
2021/05/29 01:58:37;;;;;;;22.67;11.55;;;;;;;9.40;82.99;102334.03;5104681;28;20034;-63
2021/05/29 02:01:07;;;;;;;22.25;10.38;;;;;;;9.41;82.19;102334.94;5104235;28;20020;-63
2021/05/29 02:03:32;;;;;;;21.92;10.65;;;;;;;9.47;82.47;102334.25;5104882;28;20528;-63
2021/05/29 02:05:58;;;;;;;22.55;11.10;;;;;;;9.38;82.79;102335.72;5103650;28;20020;-63
2021/05/29 02:08:24;;;;;;;22.10;10.52;;;;;;;9.32;82.52;102343.44;5105943;28;20470;-63
2021/05/29 02:10:50;;;;;;;22.38;10.75;;;;;;;9.30;83.02;102345.13;5102775;28;20039;-63
2021/05/29 02:13:30;;;;;;;22.00;10.98;;;;;;;9.19;82.64;102339.50;5106200;28;20106;-63
2021/05/29 02:15:56;;;;;;;23.17;11.02;;;;;;;9.20;83.21;102340.38;5099783;28;20088;-63
2021/05/29 02:18:22;;;;;;;22.05;10.70;;;;;;;9.13;83.16;102339.28;5106125;28;20032;-63
2021/05/29 02:21:01;;;;;;;22.75;11.02;;;;;;;9.06;83.33;102347.84;5098663;28;20429;-63
2021/05/29 02:23:30;;;;;;;21.88;11.10;;;;;;;8.92;84.08;102341.19;5100448;28;20106;-63
2021/05/29 02:25:58;;;;;;;22.50;11.75;;;;;;;8.93;85.34;102340.31;5104330;28;20393;-63
2021/05/29 02:28:24;;;;;;;22.90;11.90;;;;;;;8.85;85.32;102345.34;5102391;28;20032;-63
2021/05/29 02:30:51;;;;;;;22.35;11.85;;;;;;;8.86;85.38;102345.38;5105896;28;20020;-63
2021/05/29 02:33:18;;;;;;;22.85;12.07;;;;;;;8.84;86.44;102351.44;5102208;28;20093;-63
2021/05/29 02:35:43;;;;;;;22.90;11.93;;;;;;;8.82;86.51;102342.59;5105192;28;20114;-62
2021/05/29 02:38:10;;;;;;;22.65;11.98;;;;;;;8.83;86.17;102341.75;5103479;28;20020;-63
2021/05/29 02:40:35;;;;;;;23.20;11.65;;;;;;;8.78;86.82;102340.69;5103784;28;20039;-63
2021/05/29 02:43:01;;;;;;;23.23;12.38;;;;;;;8.77;87.16;102341.56;5104361;27;20025;-63
2021/05/29 02:45:28;;;;;;;23.35;12.35;;;;;;;8.68;87.08;102350.91;5102630;28;20409;-63
2021/05/29 02:47:53;;;;;;;23.02;11.70;;;;;;;8.65;86.97;102345.53;5105315;28;20040;-63
2021/05/29 02:50:19;;;;;;;23.98;12.60;;;;;;;8.60;87.23;102347.09;5101857;28;20031;-63
2021/05/29 02:52:44;;;;;;;23.52;12.15;;;;;;;8.60;87.41;102347.09;5105088;28;20034;-63
2021/05/29 02:55:13;;;;;;;23.90;12.50;;;;;;;8.55;87.78;102346.94;5103100;28;20084;-63
2021/05/29 02:57:38;;;;;;;22.73;12.20;;;;;;;8.53;88.01;102339.81;5104075;28;20028;-63
2021/05/29 03:00:08;;;;;;;23.55;12.52;;;;;;;8.47;87.63;102344.84;5103687;28;20031;-63
2021/05/29 03:02:33;;;;;;;23.38;11.90;;;;;;;8.53;88.35;102345.06;5103107;28;20475;-63
2021/05/29 03:04:59;;;;;;;23.00;11.82;;;;;;;8.54;87.98;102347.75;5104450;28;20034;-63
2021/05/29 03:07:24;;;;;;;22.77;12.35;;;;;;;8.46;89.09;102350.97;5102086;28;20463;-63
2021/05/29 03:09:49;;;;;;;23.92;12.93;;;;;;;8.34;90.30;102343.47;5105024;28;20517;-63
2021/05/29 03:12:15;;;;;;;24.73;12.68;;;;;;;8.31;91.14;102353.88;5102164;28;20030;-64
2021/05/29 03:14:40;;;;;;;23.60;13.07;;;;;;;8.26;91.78;102360.75;5103808;28;20031;-65
2021/05/29 03:17:05;;;;;;;23.67;13.00;;;;;;;8.24;92.97;102357.13;5103054;28;20031;-66
2021/05/29 03:19:31;;;;;;;24.75;13.60;;;;;;;8.17;93.84;102362.19;5103037;28;20349;-66
2021/05/29 03:21:56;;;;;;;25.33;14.30;;;;;;;8.10;94.09;102367.16;5104493;28;20080;-69
2021/05/29 03:24:21;;;;;;;26.15;14.00;;;;;;;8.02;95.24;102365.13;5101613;28;20031;-65
2021/05/29 03:26:47;;;;;;;25.52;13.77;;;;;;;8.01;95.78;102365.06;5104872;28;20019;-67
2021/05/29 03:29:12;;;;;;;24.30;14.18;;;;;;;8.07;97.05;102364.38;5101821;28;20043;-69
2021/05/29 03:31:38;;;;;;;24.13;13.48;;;;;;;8.03;94.36;102366.91;5103449;28;20052;-70
2021/05/29 03:34:03;;;;;;;23.58;12.85;;;;;;;7.92;93.91;102365.59;5103347;28;20051;-65
2021/05/29 03:36:28;;;;;;;24.48;13.50;;;;;;;7.87;94.09;102367.13;5102170;28;20116;-66
2021/05/29 03:38:54;;;;;;;24.23;13.40;;;;;;;7.79;94.72;102371.19;5104418;28;20366;-66
2021/05/29 03:41:19;;;;;;;23.88;13.20;;;;;;;7.86;94.86;102373.22;5100717;28;20052;-69
2021/05/29 03:43:44;;;;;;;23.58;13.05;;;;;;;7.90;94.37;102377.78;5104427;28;20072;-70
2021/05/29 03:46:10;;;;;;;24.85;14.45;;;;;;;7.90;93.93;102375.16;5100637;28;20070;-67
2021/05/29 03:48:36;;;;;;;24.02;13.57;;;;;;;7.87;92.94;102374.16;5102991;28;20055;-70
2021/05/29 03:51:02;;;;;;;23.83;13.30;;;;;;;7.89;92.71;102373.34;5103575;28;20020;-69
2021/05/29 03:53:27;;;;;;;25.08;13.60;;;;;;;7.90;93.38;102377.78;5101709;28;20028;-65
2021/05/29 03:55:54;;;;;;;24.95;13.73;;;;;;;7.98;93.62;102375.44;5104612;28;20031;-65
2021/05/29 03:58:20;;;;;;;24.42;13.35;;;;;;;7.93;92.02;102383.19;5096969;28;20035;-70
2021/05/29 04:00:45;;;;;;;23.70;13.30;;;;;;;7.95;93.33;102380.59;5104245;28;20374;-67
2021/05/29 04:03:11;;;;;;;25.42;14.30;;;;;;;8.00;93.14;102385.22;5102132;28;20084;-69
2021/05/29 04:05:37;;;;;;;24.15;13.13;;;;;;;8.02;91.54;102377.38;5102597;28;20540;-68
2021/05/29 04:08:02;;;;;;;24.85;15.32;;;;;;;8.02;93.39;102380.94;5103369;28;20111;-70
2021/05/29 04:10:31;;;;;;;26.42;15.00;;;;;;;8.07;93.08;102388.09;5101536;28;20028;-66
2021/05/29 04:12:57;;;;;;;25.00;14.50;;;;;;;8.02;93.20;102383.56;5103688;28;20064;-70
2021/05/29 04:15:23;;;;;;;25.70;14.95;;;;;;;8.00;92.80;102385.22;5100948;28;20028;-70
2021/05/29 04:17:49;;;;;;;25.25;14.63;;;;;;;8.09;93.09;102381.16;5103952;28;20028;-72
2021/05/29 04:20:18;;;;;;;27.83;16.42;;;;;;;8.11;95.13;102382.09;5101228;28;20500;-69
2021/05/29 04:22:44;;;;;;;30.17;15.65;;;;;;;8.17;93.25;102388.53;5103859;28;20032;-72
2021/05/29 04:25:14;;;;;;;24.83;14.63;;;;;;;8.19;92.74;102383.31;5102043;28;20043;-70
2021/05/29 04:27:40;;;;;;;27.63;16.25;;;;;;;8.20;92.87;102387.75;5102879;28;20028;-70
2021/05/29 04:30:09;;;;;;;27.20;16.45;;;;;;;8.23;93.72;102398.41;5103003;28;20026;-67
2021/05/29 04:32:34;;;;;;;26.77;16.75;;;;;;;8.27;94.96;102394.13;5101903;28;20052;-69
2021/05/29 04:35:00;;;;;;;28.35;17.50;;;;;;;8.37;94.34;102393.66;5103362;28;20058;-63
2021/05/29 04:37:25;;;;;;;28.65;17.95;;;;;;;8.48;97.27;102396.75;5101058;28;20024;-62
2021/05/29 04:39:51;;;;;;;28.15;16.55;;;;;;;8.53;95.00;102396.06;5102362;28;20595;-62
2021/05/29 04:42:16;;;;;;;28.75;17.88;;;;;;;8.66;94.57;102401.78;5100744;28;20129;-63
2021/05/29 04:44:42;;;;;;;28.70;18.52;;;;;;;8.71;94.07;102402.88;5103462;28;20028;-63
2021/05/29 04:47:07;;;;;;;30.35;19.80;;;;;;;8.78;95.31;102406.59;5101822;28;20016;-63
2021/05/29 04:49:33;;;;;;;29.75;18.05;;;;;;;8.84;94.55;102396.28;5101631;28;20032;-63
2021/05/29 04:51:59;;;;;;;28.75;18.40;;;;;;;8.85;95.28;102401.63;5103554;28;20073;-63
2021/05/29 04:54:25;;;;;;;30.50;19.77;;;;;;;8.89;95.90;102413.19;5102760;28;20024;-63
2021/05/29 04:56:50;;;;;;;29.52;19.13;;;;;;;8.99;95.30;102410.03;5107848;28;20473;-62
2021/05/29 04:59:16;;;;;;;30.45;17.85;;;;;;;9.02;94.72;102409.25;5105233;28;20032;-62
2021/05/29 05:01:41;;;;;;;29.70;18.60;;;;;;;9.06;95.16;102412.03;5106554;28;20069;-63
2021/05/29 05:04:07;;;;;;;29.77;17.38;;;;;;;9.14;94.26;102409.66;5105691;28;20030;-63
2021/05/29 05:06:32;;;;;;;28.70;17.70;;;;;;;9.27;96.22;102415.38;5105672;28;20024;-63
2021/05/29 05:08:58;;;;;;;29.30;17.67;;;;;;;9.36;97.78;102415.69;5106778;28;20466;-63
2021/05/29 05:11:24;;;;;;;29.65;17.83;;;;;;;9.42;96.13;102418.53;5104115;28;20099;-63
2021/05/29 05:13:49;;;;;;;29.52;17.48;;;;;;;9.51;95.67;102417.94;5107397;28;20051;-63
2021/05/29 05:16:16;;;;;;;29.60;18.88;;;;;;;9.56;97.50;102414.63;5104169;28;20024;-63
2021/05/29 05:18:42;;;;;;;29.33;17.48;;;;;;;9.65;97.95;102423.72;5106209;28;20080;-63
2021/05/29 05:21:08;;;;;;;30.52;17.50;;;;;;;9.73;95.37;102424.88;5105455;28;20064;-69
2021/05/29 05:23:34;;;;;;;29.17;16.83;;;;;;;9.73;94.55;102432.78;5104966;28;20104;-68
2021/05/29 05:25:59;;;;;;;27.77;16.77;;;;;;;9.83;94.70;102432.25;5106565;27;20062;-68
2021/05/29 05:28:27;;;;;;;27.38;16.55;;;;;;;9.90;92.75;102428.97;5103795;28;20416;-69
2021/05/29 05:30:57;;;;;;;28.25;16.20;;;;;;;9.97;92.54;102432.66;5107009;28;20031;-65
2021/05/29 05:33:24;;;;;;;27.80;16.83;;;;;;;9.96;92.34;102438.81;5099734;28;20055;-70
2021/05/29 05:35:50;;;;;;;26.98;16.00;;;;;;;9.99;92.27;102446.84;5099261;28;20028;-68
2021/05/29 05:38:16;;;;;;;27.95;16.42;;;;;;;10.01;90.67;102449.53;5106444;28;20026;-67
2021/05/29 05:40:41;;;;;;;26.48;15.23;;;;;;;10.06;89.49;102447.91;5104898;28;20102;-70
2021/05/29 05:43:07;;;;;;;26.98;15.27;;;;;;;10.12;89.74;102441.09;5105131;28;20020;-70
2021/05/29 05:45:32;;;;;;;27.98;15.68;;;;;;;10.25;90.85;102452.97;5105942;28;20032;-66
2021/05/29 05:47:58;;;;;;;27.75;15.73;;;;;;;10.29;88.03;102449.56;5104053;28;20024;-68
2021/05/29 05:50:23;;;;;;;27.27;15.98;;;;;;;10.32;86.95;102442.56;5106711;28;20020;-69
2021/05/29 05:52:49;;;;;;;26.58;15.98;;;;;;;10.42;87.58;102442.03;5103224;28;20024;-69
2021/05/29 05:55:14;;;;;;;26.65;14.32;;;;;;;10.49;83.76;102453.69;5106341;28;20020;-69
2021/05/29 05:57:40;;;;;;;25.40;14.68;;;;;;;10.47;84.52;102448.38;5104131;28;20027;-71
2021/05/29 06:00:08;;;;;;;26.92;14.43;;;;;;;10.59;84.11;102453.13;5104425;28;20020;-69
2021/05/29 06:02:33;;;;;;;25.67;14.40;;;;;;;10.66;84.86;102454.19;5105219;28;20072;-68
2021/05/29 06:04:59;;;;;;;27.70;14.88;;;;;;;10.69;83.71;102462.22;5103079;28;20467;-70
2021/05/29 06:07:24;;;;;;;26.33;14.80;;;;;;;10.72;82.02;102457.91;5106574;28;20019;-69
2021/05/29 06:09:50;;;;;;;24.52;13.80;;;;;;;10.76;82.82;102457.16;5098930;28;20020;-70
2021/05/29 06:12:15;;;;;;;25.80;14.10;;;;;;;10.76;82.26;102458.88;5105700;28;20020;-70
2021/05/29 06:20:12;;;;;;;23.55;12.90;;;;;;;10.96;79.60;102456.81;5104246;28;20058;-65
2021/05/29 06:22:39;;;;;;;24.98;13.98;;;;;;;11.05;79.97;102462.38;5104616;28;20028;-68
2021/05/29 06:25:06;;;;;;;24.67;13.55;;;;;;;11.11;77.62;102466.94;5104603;28;20707;-71
2021/05/29 06:27:32;;;;;;;23.35;12.15;;;;;;;11.19;76.09;102469.81;5103406;28;20033;-71
2021/05/29 06:29:57;;;;;;;24.27;12.82;;;;;;;11.27;76.35;102474.47;5105677;28;20481;-70
2021/05/29 06:32:22;;;;;;;25.40;12.70;;;;;;;11.34;77.85;102475.53;5102426;28;20097;-71
2021/05/29 06:34:48;;;;;;;23.65;11.95;;;;;;;11.40;75.07;102478.34;5105771;28;20427;-72
2021/05/29 06:37:13;;;;;;;24.02;12.70;;;;;;;11.45;76.87;102483.78;5103273;28;20023;-67
2021/05/29 06:39:39;;;;;;;24.50;12.98;;;;;;;11.50;77.03;102491.00;5104278;28;20024;-67
2021/05/29 06:42:04;;;;;;;25.23;13.85;;;;;;;11.58;76.85;102477.06;5104544;28;20023;-70
2021/05/29 06:44:30;;;;;;;24.25;13.10;;;;;;;11.60;75.50;102481.50;5102814;28;20024;-67
2021/05/29 06:46:55;;;;;;;24.08;12.93;;;;;;;11.66;76.13;102487.00;5105521;28;20096;-70
2021/05/29 06:49:21;;;;;;;24.30;12.40;;;;;;;11.75;75.06;102485.41;5102399;28;20077;-68
2021/05/29 06:54:42;;;;;;;23.98;11.95;;;;;;;11.91;73.42;102490.25;5102919;28;20049;-69
2021/05/29 06:59:52;;;;;;;25.00;12.52;;;;;;;12.17;76.53;102497.97;5098199;28;20071;-69
2021/05/29 07:02:18;;;;;;;24.00;11.70;;;;;;;12.26;75.42;102492.00;5105291;28;20019;-69
2021/05/29 07:04:43;;;;;;;23.58;12.00;;;;;;;12.31;71.56;102500.97;5102918;28;20026;-70
2021/05/29 07:07:08;;;;;;;23.55;12.32;;;;;;;12.38;71.56;102500.25;5103587;28;20387;-70
2021/05/29 07:09:34;;;;;;;23.10;11.95;;;;;;;12.49;72.58;102498.72;5104309;28;20407;-71
2021/05/29 07:11:59;;;;;;;23.08;12.27;;;;;;;12.61;73.08;102502.50;5102153;28;20020;-71
2021/05/29 07:14:25;;;;;;;24.88;11.82;;;;;;;12.66;72.48;102493.78;5105287;28;20059;-70
2021/05/29 07:16:51;;;;;;;23.35;11.77;;;;;;;12.69;70.38;102503.59;5096779;28;20032;-67
2021/05/29 07:19:19;;;;;;;24.38;11.70;;;;;;;12.79;72.42;102499.38;5104559;28;20077;-69
2021/05/29 07:21:44;;;;;;;27.38;11.98;;;;;;;12.87;71.04;102506.66;5102712;28;20023;-69
2021/05/29 07:24:10;;;;;;;22.77;10.93;;;;;;;12.90;68.55;102501.41;5103727;28;20455;-72
2021/05/29 07:26:35;;;;;;;21.50;10.25;;;;;;;12.97;69.28;102509.47;5103761;28;20027;-71
2021/05/29 07:29:00;;;;;;;24.25;11.57;;;;;;;13.02;68.47;102495.44;5102439;28;20081;-72
2021/05/29 07:31:26;;;;;;;22.67;10.93;;;;;;;13.11;68.22;102502.69;5104982;28;20024;-65
2021/05/29 07:33:54;;;;;;;21.77;10.10;;;;;;;13.22;69.47;102495.84;5101235;28;20036;-66
2021/05/29 07:36:20;;;;;;;22.40;10.35;;;;;;;13.31;67.21;102504.84;5104839;28;20028;-70
2021/05/29 07:38:45;;;;;;;22.42;10.43;;;;;;;13.41;68.58;102504.19;5102223;28;20024;-70
2021/05/29 07:41:11;;;;;;;23.75;10.63;;;;;;;13.50;69.04;102506.13;5103200;28;20024;-69
2021/05/29 07:43:37;;;;;;;22.42;10.40;;;;;;;13.58;65.82;102494.75;5103342;28;20439;-70
2021/05/29 07:46:03;;;;;;;22.13;10.65;;;;;;;13.66;65.66;102508.22;5102190;28;20028;-70
2021/05/29 07:48:29;;;;;;;23.05;10.57;;;;;;;13.75;67.27;102504.81;5104075;28;20478;-68
2021/05/29 07:50:57;;;;;;;22.20;11.35;;;;;;;13.85;66.67;102506.75;5101299;28;20031;-69
2021/05/29 07:53:37;;;;;;;23.50;10.65;;;;;;;13.90;65.09;102507.72;5097336;28;20032;-69
2021/05/29 07:56:05;;;;;;;22.98;11.07;;;;;;;14.04;65.62;102509.75;5099059;28;20024;-69
2021/05/29 07:58:31;;;;;;;23.25;10.88;;;;;;;14.18;63.12;102512.59;5104079;28;20370;-68
2021/05/29 08:00:57;;;;;;;22.70;10.65;;;;;;;14.27;64.76;102516.31;5101434;28;20030;-69
2021/05/29 08:03:24;;;;;;;23.23;10.88;;;;;;;14.30;62.76;102515.47;5104558;28;20519;-70
2021/05/29 08:05:51;;;;;;;22.90;10.85;;;;;;;14.41;63.84;102521.81;5101150;28;20107;-70
2021/05/29 08:08:17;;;;;;;22.48;10.23;;;;;;;14.52;62.52;102529.97;5104276;28;20062;-63
2021/05/29 08:10:46;;;;;;;22.70;9.85;;;;;;;14.65;61.99;102525.78;5102190;28;20385;-63
2021/05/29 08:13:11;;;;;;;22.63;10.23;;;;;;;14.78;63.21;102529.47;5103213;28;20352;-63
2021/05/29 08:15:36;;;;;;;22.67;10.50;;;;;;;14.79;61.27;102528.59;5102892;28;20027;-63
2021/05/29 08:18:02;;;;;;;21.70;10.18;;;;;;;14.79;58.67;102520.63;5101469;28;20130;-63
2021/05/29 08:20:28;;;;;;;21.40;9.80;;;;;;;14.91;59.70;102523.47;5104180;28;20023;-63
2021/05/29 08:22:54;;;;;;;21.85;10.02;;;;;;;15.09;62.25;102525.44;5101057;28;20036;-63
2021/05/29 08:25:19;;;;;;;22.42;9.40;;;;;;;15.15;60.14;102520.19;5104129;28;20015;-64
2021/05/29 08:27:44;;;;;;;22.35;9.98;;;;;;;15.29;58.74;102509.69;5103217;28;20099;-64
2021/05/29 08:30:11;;;;;;;22.27;10.45;;;;;;;15.44;58.61;102521.41;5106822;28;20042;-63
2021/05/29 08:32:36;;;;;;;23.35;10.77;;;;;;;15.49;58.81;102525.00;5106413;28;20034;-63
2021/05/29 08:35:04;;;;;;;22.10;10.70;;;;;;;15.63;57.29;102534.03;5105580;28;20047;-63
2021/05/29 08:37:30;;;;;;;21.83;10.55;;;;;;;15.68;57.08;102528.75;5107952;28;20032;-63
2021/05/29 08:39:55;;;;;;;22.75;10.40;;;;;;;15.84;57.43;102532.47;5105076;28;20024;-63
2021/05/29 08:42:22;;;;;;;23.17;11.00;;;;;;;15.96;57.33;102535.28;5107652;28;20084;-63
2021/05/29 08:44:47;;;;;;;22.95;11.85;;;;;;;16.10;56.56;102540.72;5105240;27;20024;-63
2021/05/29 08:47:13;;;;;;;23.25;11.25;;;;;;;16.28;55.31;102537.31;5106729;28;20099;-63
2021/05/29 08:49:38;;;;;;;23.15;11.10;;;;;;;16.47;56.57;102540.09;5106528;28;20023;-63
2021/05/29 08:52:06;;;;;;;24.17;11.40;;;;;;;16.51;53.52;102537.47;5105625;28;20031;-63
2021/05/29 08:54:33;;;;;;;23.70;11.57;;;;;;;16.57;54.49;102539.25;5107018;28;20028;-63
2021/05/29 08:56:59;;;;;;;23.50;11.65;;;;;;;16.47;54.79;102538.34;5104583;28;20028;-63
2021/05/29 08:59:24;;;;;;;24.42;12.00;;;;;;;16.61;54.46;102535.72;5108220;28;20143;-63
2021/05/29 09:01:52;;;;;;;24.17;11.70;;;;;;;16.62;53.57;102542.88;5104522;28;20066;-63
2021/05/29 09:04:18;;;;;;;24.30;11.70;;;;;;;16.79;54.26;102536.72;5107117;28;20046;-63
2021/05/29 09:06:45;;;;;;;24.25;12.68;;;;;;;17.03;53.46;102541.34;5105379;28;20474;-63
2021/05/29 09:09:12;;;;;;;24.27;12.43;;;;;;;17.31;52.61;102531.63;5105942;28;20020;-63
2021/05/29 09:11:52;;;;;;;24.08;12.52;;;;;;;17.72;53.05;102541.53;5106039;28;20347;-63
2021/05/29 09:14:32;;;;;;;24.05;12.07;;;;;;;18.25;53.97;102544.25;5105736;28;20547;-63
2021/05/29 09:17:19;;;;;;;21.83;9.57;;;;;;;18.33;51.46;102539.78;5100674;28;20028;-63
2021/05/29 09:20:07;;;;;;;22.45;9.40;;;;;;;18.08;49.73;102538.91;5105055;28;20088;-63
2021/05/29 09:22:56;;;;;;;21.33;8.57;;;;;;;18.01;50.21;102542.47;5102256;28;20054;-63
2021/05/29 09:25:24;;;;;;;20.30;8.85;;;;;;;17.97;49.45;102541.59;5103785;28;20020;-63
2021/05/29 09:27:58;;;;;;;21.88;10.10;;;;;;;18.16;49.61;102547.84;5105919;28;20110;-63
2021/05/29 09:30:44;;;;;;;21.40;9.20;;;;;;;18.42;49.36;102545.13;5099826;28;20077;-65
2021/05/29 09:33:26;;;;;;;21.30;9.73;;;;;;;18.66;48.64;102554.00;5103476;28;20056;-67
2021/05/29 09:36:03;;;;;;;;;;;;;;;18.87;49.78;102552.19;5104044;28;20497;-65
2021/05/29 09:38:54;;;;;;;20.17;8.00;;;;;;;19.00;47.18;102548.56;5100497;28;19943;-65
2021/05/29 09:41:33;;;;;;;20.42;7.95;;;;;;;19.03;47.00;102545.88;5103876;28;20031;-65
2021/05/29 09:44:04;;;;;;;22.20;8.57;;;;;;;19.19;46.19;102543.13;5100509;28;20032;-66
2021/05/29 09:46:30;;;;;;;20.90;8.73;;;;;;;19.40;45.75;102545.72;5106646;28;20035;-66
2021/05/29 09:49:00;;;;;;;21.08;8.60;;;;;;;19.76;46.41;102543.69;5103469;28;20020;-65
2021/05/29 09:51:27;;;;;;;29.15;8.77;;;;;;;20.15;44.85;102555.06;5099373;28;20035;-70
2021/05/29 09:53:54;;;;;;;20.50;8.63;;;;;;;20.54;43.77;102554.66;5106868;28;20042;-66
2021/05/29 09:56:37;;;;;;;20.88;8.43;;;;;;;20.98;44.61;102544.34;5103692;28;20028;-69
2021/05/29 09:59:13;;;;;;;20.35;8.02;;;;;;;21.57;41.49;102548.06;5101276;28;20112;-70
2021/05/29 10:01:54;;;;;;;20.17;7.88;;;;;;;22.84;38.44;102555.78;5104841;28;20076;-68
2021/05/29 10:04:26;;;;;;;20.15;7.60;;;;;;;24.80;35.50;102552.00;5106072;28;20114;-66
2021/05/29 10:06:56;;;;;;;21.27;8.10;;;;;;;26.38;32.13;102556.03;5103204;28;20031;-67
2021/05/29 10:09:22;;;;;;;20.67;7.70;;;;;;;27.82;28.93;102548.75;5106242;28;20027;-68
2021/05/29 10:11:47;;;;;;;19.25;7.13;;;;;;;29.00;26.90;102554.50;5103654;28;20019;-66
2021/05/29 10:14:12;;;;;;;20.25;7.20;;;;;;;27.80;27.38;102550.66;5104803;28;20023;-66
2021/05/29 10:16:38;;;;;;;19.95;7.40;;;;;;;26.28;31.45;102554.59;5104666;28;20031;-70
2021/05/29 10:19:06;;;;;;;20.30;8.13;;;;;;;27.26;28.87;102551.91;5103701;28;20073;-70
2021/05/29 10:21:32;;;;;;;19.30;7.10;;;;;;;28.71;26.96;102556.75;5105555;28;20019;-71
2021/05/29 10:24:00;;;;;;;19.60;7.05;;;;;;;30.02;25.59;102549.59;5102970;28;20035;-64
2021/05/29 10:26:28;;;;;;;19.83;7.80;;;;;;;29.65;24.50;102552.31;5106203;28;20019;-65
2021/05/29 10:28:55;;;;;;;21.17;8.50;;;;;;;28.05;26.22;102555.06;5098786;28;20104;-64
2021/05/29 10:31:22;;;;;;;20.95;8.20;;;;;;;26.75;29.70;102552.03;5105503;28;20038;-64
2021/05/29 10:33:48;;;;;;;21.23;8.52;;;;;;;26.27;30.78;102547.38;5103070;28;20109;-64
2021/05/29 10:36:57;;;;;;;20.90;7.90;;;;;;;28.42;27.74;102545.31;5104389;28;20412;-64
2021/05/29 10:39:44;;;;;;;21.60;8.50;;;;;;;30.18;26.29;102547.81;5106082;28;20059;-65
2021/05/29 10:42:09;;;;;;;21.45;8.30;;;;;;;29.71;25.33;102545.69;5102184;28;20463;-64
2021/05/29 10:44:39;;;;;;;21.02;8.02;;;;;;;30.52;23.91;102546.06;5104757;28;20023;-64
2021/05/29 10:47:10;;;;;;;19.10;7.50;;;;;;;31.31;22.81;102541.78;5103178;28;20069;-64
2021/05/29 10:49:50;;;;;;;20.50;7.38;;;;;;;32.11;23.27;102539.81;5104757;28;20031;-64
2021/05/29 10:52:31;;;;;;;20.35;7.10;;;;;;;32.42;23.10;102542.56;5104942;28;20375;-64
2021/05/29 10:55:09;;;;;;;19.67;6.30;;;;;;;32.95;22.01;102543.75;5098800;28;20039;-64
2021/05/29 10:58:02;;;;;;;18.88;6.38;;;;;;;33.47;21.22;102536.75;5098701;28;20032;-65
2021/05/29 11:00:36;;;;;;;18.80;6.10;;;;;;;33.58;20.26;102529.66;5098716;28;20027;-64
2021/05/29 11:03:21;;;;;;;19.10;5.88;;;;;;;34.14;20.48;102535.03;5099214;28;20409;-64
2021/05/29 11:05:49;;;;;;;19.85;6.82;;;;;;;31.11;21.89;102542.91;5102581;28;20026;-65
2021/05/29 11:08:52;;;;;;;18.30;6.65;;;;;;;30.55;24.30;102537.75;5104084;28;20475;-64
2021/05/29 11:11:37;;;;;;;19.55;7.03;;;;;;;32.12;22.92;102525.19;5103647;28;20100;-64
2021/05/29 11:14:12;;;;;;;19.83;7.53;;;;;;;30.99;23.10;102532.63;5099470;28;20020;-64
2021/05/29 11:16:47;;;;;;;20.58;7.38;;;;;;;29.95;23.79;102531.78;5103526;28;20119;-64
2021/05/29 11:19:33;;;;;;;19.95;8.20;;;;;;;31.55;23.02;102527.66;5103515;28;20031;-64
2021/05/29 11:22:05;;;;;;;19.13;7.05;;;;;;;32.63;21.83;102537.56;5097982;28;20035;-64
2021/05/29 11:24:32;;;;;;;;;;;;;;;34.06;21.41;102532.78;5105231;28;20027;-64
2021/05/29 11:26:58;;;;;;;19.80;7.30;;;;;;;33.93;19.08;102530.06;5101629;28;19912;-65
2021/05/29 11:29:23;;;;;;;21.20;8.40;;;;;;;31.80;22.29;102527.09;5097471;28;20116;-69